createdAt,value
2023-04-21T00:00:23.014Z,24.15
2023-04-21T00:02:59.155Z,24.80
2023-04-21T00:05:32.427Z,26.35
2023-04-21T00:08:02.128Z,25.52
2023-04-21T00:10:29.584Z,26.33
2023-04-21T00:13:00.156Z,25.13
2023-04-21T00:15:30.459Z,25.90
2023-04-21T00:18:01.748Z,28.42
2023-04-21T00:20:38.044Z,26.42
2023-04-21T00:23:15.769Z,25.45
2023-04-21T00:25:44.648Z,27.90
2023-04-21T00:28:16.218Z,27.30
2023-04-21T00:33:34.194Z,27.77
2023-04-21T00:36:13.239Z,30.10
2023-04-21T00:41:53.645Z,30.55
2023-04-21T00:44:42.604Z,31.42
2023-04-21T00:47:12.361Z,29.67
2023-04-21T00:49:59.201Z,29.95
2023-04-21T00:52:32.436Z,28.42
2023-04-21T00:55:10.704Z,29.77
2023-04-21T00:57:52.428Z,28.80
2023-04-21T01:00:21.915Z,27.75
2023-04-21T01:02:58.710Z,30.40
2023-04-21T01:05:31.539Z,31.27
2023-04-21T01:08:00.565Z,30.33
2023-04-21T01:10:28.089Z,29.23
2023-04-21T01:12:56.836Z,29.77
2023-04-21T01:15:25.474Z,28.90
2023-04-21T01:17:55.308Z,30.50
2023-04-21T01:20:34.255Z,31.48
2023-04-21T01:23:02.842Z,28.50
2023-04-21T01:25:30.649Z,30.92
2023-04-21T01:27:58.064Z,30.33
2023-04-21T01:30:25.614Z,30.77
2023-04-21T01:32:54.673Z,30.92
2023-04-21T01:35:22.201Z,31.63
2023-04-21T01:37:49.735Z,32.53
2023-04-21T01:40:17.184Z,31.75
2023-04-21T01:42:44.590Z,31.02
2023-04-21T01:45:13.711Z,31.42
2023-04-21T01:47:41.413Z,31.45
2023-04-21T01:50:10.163Z,29.95
2023-04-21T01:52:43.877Z,32.38
2023-04-21T01:55:24.313Z,30.38
2023-04-21T01:57:58.033Z,31.83
2023-04-21T02:00:28.444Z,32.30
2023-04-21T02:03:05.794Z,31.98
2023-04-21T02:05:49.298Z,30.55
2023-04-21T02:08:24.621Z,31.73
2023-04-21T02:16:30.174Z,30.40
2023-04-21T02:19:07.964Z,33.78
2023-04-21T02:24:56.260Z,31.92
2023-04-21T02:27:25.322Z,30.98
2023-04-21T02:29:53.773Z,30.67
2023-04-21T02:32:27.780Z,34.60
2023-04-21T02:37:47.914Z,32.75
2023-04-21T02:40:18.343Z,32.08
2023-04-21T02:45:32.036Z,33.80
2023-04-21T02:50:46.496Z,34.13
2023-04-21T02:53:33.785Z,33.70
2023-04-21T02:56:06.159Z,32.72
2023-04-21T02:58:42.686Z,34.40
2023-04-21T03:01:13.898Z,36.00
2023-04-21T03:03:48.715Z,34.72
2023-04-21T03:06:19.490Z,35.20
2023-04-21T03:08:49.941Z,37.47
2023-04-21T03:11:21.828Z,39.08
2023-04-21T03:13:59.007Z,41.03
2023-04-21T03:16:43.896Z,37.63
2023-04-21T03:19:17.778Z,38.92
2023-04-21T03:21:48.799Z,36.30
2023-04-21T03:24:18.698Z,34.35
2023-04-21T03:27:19.467Z,38.60
2023-04-21T03:32:41.527Z,33.00
2023-04-21T03:35:26.823Z,34.42
2023-04-21T03:40:54.309Z,37.28
2023-04-21T03:43:26.257Z,37.08
2023-04-21T03:46:07.301Z,37.05
2023-04-21T03:48:56.964Z,37.53
2023-04-21T03:51:52.510Z,39.13
2023-04-21T03:54:28.006Z,39.20
2023-04-21T03:57:54.030Z,38.75
2023-04-21T04:00:36.992Z,39.42
2023-04-21T04:03:17.091Z,41.20
2023-04-21T04:05:58.098Z,37.95
2023-04-21T04:08:47.522Z,40.25
2023-04-21T04:17:12.401Z,40.33
2023-04-21T04:19:43.489Z,39.00
2023-04-21T04:22:11.516Z,40.15
2023-04-21T04:24:47.534Z,39.85
2023-04-21T04:27:19.434Z,37.65
2023-04-21T04:30:04.341Z,39.57
2023-04-21T04:32:42.738Z,39.55
2023-04-21T04:38:05.157Z,40.63
2023-04-21T04:40:39.332Z,43.65
2023-04-21T04:48:52.444Z,39.83
2023-04-21T04:51:20.604Z,42.03
2023-04-21T04:53:50.003Z,43.50
2023-04-21T04:56:17.903Z,45.80
2023-04-21T04:58:49.262Z,45.75
2023-04-21T05:01:18.688Z,43.55
2023-04-21T05:03:47.334Z,43.45
2023-04-21T05:06:16.105Z,46.78
2023-04-21T05:08:43.501Z,47.97
2023-04-21T05:11:10.834Z,50.28
2023-04-21T05:13:39.931Z,48.38
2023-04-21T05:16:10.400Z,48.33
2023-04-21T05:18:39.411Z,45.28
2023-04-21T05:21:07.034Z,45.08
2023-04-21T05:23:34.396Z,48.50
2023-04-21T05:26:04.208Z,46.33
2023-04-21T05:28:32.220Z,46.33
2023-04-21T05:30:59.536Z,44.70
2023-04-21T05:33:27.052Z,47.72
2023-04-21T05:35:54.579Z,46.90
2023-04-21T05:38:22.152Z,49.35
2023-04-21T05:40:57.194Z,49.42
2023-04-21T05:43:27.292Z,51.10
2023-04-21T05:45:57.570Z,50.60
2023-04-21T05:48:30.357Z,50.53
2023-04-21T05:50:58.880Z,53.20
2023-04-21T05:53:29.157Z,52.22
2023-04-21T05:56:02.831Z,53.75
2023-04-21T05:58:31.056Z,56.28
2023-04-21T06:00:58.695Z,54.90
2023-04-21T06:03:27.627Z,52.95
2023-04-21T06:05:56.559Z,54.65
2023-04-21T06:14:14.927Z,52.47
2023-04-21T06:16:42.798Z,53.83
2023-04-21T06:21:56.836Z,57.13
2023-04-21T06:24:33.135Z,59.50
2023-04-21T06:27:04.607Z,58.20
2023-04-21T06:29:35.465Z,60.00
2023-04-21T06:32:11.951Z,59.25
2023-04-21T06:34:41.841Z,56.95
2023-04-21T06:37:13.643Z,61.08
2023-04-21T06:39:41.571Z,60.50
2023-04-21T06:44:59.242Z,60.55
2023-04-21T06:47:27.526Z,57.55
2023-04-21T06:49:54.962Z,54.88
2023-04-21T06:52:22.218Z,54.47
2023-04-21T06:54:49.485Z,56.47
2023-04-21T06:57:17.383Z,56.00
2023-04-21T06:59:44.801Z,57.05
2023-04-21T07:02:12.188Z,55.22
2023-04-21T07:04:42.715Z,56.75
2023-04-21T07:07:10.051Z,57.15
2023-04-21T07:09:37.283Z,55.50
2023-04-21T07:12:04.699Z,55.10
2023-04-21T07:14:32.007Z,53.45
2023-04-21T07:16:59.535Z,51.17
2023-04-21T07:19:27.621Z,45.97
2023-04-21T07:21:54.984Z,45.40
2023-04-21T07:24:22.319Z,43.42
2023-04-21T07:26:49.755Z,41.58
2023-04-21T07:29:17.282Z,43.60
2023-04-21T07:31:49.221Z,39.08
2023-04-21T07:34:23.546Z,39.73
2023-04-21T07:36:59.870Z,40.50
2023-04-21T07:39:29.680Z,39.90
2023-04-21T07:42:02.109Z,41.92
2023-04-21T07:44:42.282Z,42.42
2023-04-21T07:47:14.056Z,42.15
2023-04-21T07:49:45.401Z,44.53
2023-04-21T07:52:12.812Z,42.75
2023-04-21T07:54:44.050Z,42.22
2023-04-21T07:57:22.958Z,42.58
2023-04-21T07:59:50.879Z,46.13
2023-04-21T08:07:53.316Z,44.58
2023-04-21T08:10:21.607Z,44.80
2023-04-21T08:13:02.837Z,41.13
2023-04-21T08:15:33.523Z,40.03
2023-04-21T08:18:06.501Z,40.35
2023-04-21T08:23:17.984Z,39.50
2023-04-21T08:25:59.920Z,41.33
2023-04-21T08:28:29.705Z,37.22
2023-04-21T08:30:57.082Z,36.40
2023-04-21T08:33:24.518Z,35.67
2023-04-21T08:36:03.778Z,36.65
2023-04-21T08:38:33.273Z,31.98
2023-04-21T08:41:00.742Z,34.08
2023-04-21T08:43:29.406Z,30.98
2023-04-21T08:45:57.056Z,33.70
2023-04-21T08:48:25.470Z,30.80
2023-04-21T08:50:53.917Z,30.55
2023-04-21T08:53:29.641Z,30.55
2023-04-21T08:56:09.943Z,27.92
2023-04-21T08:58:39.385Z,27.98
2023-04-21T09:01:07.358Z,26.60
2023-04-21T09:03:37.326Z,27.92
2023-04-21T09:06:10.215Z,28.35
2023-04-21T09:08:45.240Z,28.15
2023-04-21T09:11:17.593Z,27.98
2023-04-21T09:13:54.524Z,28.15
2023-04-21T09:16:33.365Z,26.75
2023-04-21T09:19:01.295Z,26.77
2023-04-21T09:21:32.123Z,28.58
2023-04-21T09:24:08.045Z,28.45
2023-04-21T09:26:37.003Z,28.83
2023-04-21T09:29:07.825Z,29.85
2023-04-21T09:31:36.459Z,30.38
2023-04-21T09:34:21.420Z,31.30
2023-04-21T09:36:48.810Z,29.92
2023-04-21T09:41:46.710Z,30.08
2023-04-21T09:44:14.071Z,30.45
2023-04-21T09:46:45.274Z,29.98
2023-04-21T09:49:14.462Z,29.40
2023-04-21T09:52:10.357Z,29.50
2023-04-21T09:54:34.944Z,27.48
2023-04-21T09:57:04.508Z,27.88
2023-04-21T09:59:41.221Z,27.15
2023-04-21T10:02:09.543Z,23.60
2023-04-21T10:04:41.654Z,25.40
2023-04-21T10:07:11.848Z,25.27
2023-04-21T10:09:51.872Z,27.08
2023-04-21T10:12:22.905Z,26.88
2023-04-21T10:14:56.828Z,25.92
2023-04-21T10:17:33.883Z,23.67
2023-04-21T10:20:03.936Z,22.42
2023-04-21T10:22:35.997Z,24.38
2023-04-21T10:25:13.246Z,23.38
2023-04-21T10:27:48.735Z,22.20
2023-04-21T10:30:25.004Z,21.30
2023-04-21T10:33:16.670Z,23.10
2023-04-21T10:36:04.844Z,25.27
2023-04-21T10:38:50.341Z,24.65
2023-04-21T10:41:34.874Z,24.52
2023-04-21T10:44:14.877Z,24.63
2023-04-21T10:46:49.826Z,24.10
2023-04-21T10:49:28.229Z,24.58
2023-04-21T10:52:09.345Z,24.27
2023-04-21T10:54:57.401Z,23.85
2023-04-21T10:57:32.632Z,23.30
2023-04-21T11:00:03.796Z,21.02
2023-04-21T11:02:34.583Z,21.98
2023-04-21T11:05:13.685Z,21.90
2023-04-21T11:07:46.413Z,20.75
2023-04-21T11:10:17.865Z,21.10
2023-04-21T11:12:46.767Z,20.73
2023-04-21T11:15:17.812Z,18.10
2023-04-21T11:17:49.314Z,17.73
2023-04-21T11:20:16.836Z,17.55
2023-04-21T11:22:47.161Z,17.48
2023-04-21T11:25:19.151Z,17.92
2023-04-21T11:28:10.626Z,18.10
2023-04-21T11:30:51.533Z,18.40
2023-04-21T11:33:21.209Z,18.02
2023-04-21T11:35:53.312Z,17.85
2023-04-21T11:38:26.061Z,17.73
2023-04-21T11:40:59.502Z,21.85
2023-04-21T11:43:41.944Z,21.58
2023-04-21T11:49:26.063Z,21.85
2023-04-21T11:54:34.743Z,20.15
2023-04-21T11:57:42.696Z,18.95
2023-04-21T12:00:19.455Z,20.05
2023-04-21T12:02:57.602Z,19.63
2023-04-21T12:05:28.152Z,19.52
2023-04-21T12:07:57.200Z,19.08
2023-04-21T12:10:35.073Z,18.30
2023-04-21T12:13:03.077Z,17.20
2023-04-21T12:15:39.648Z,17.48
2023-04-21T12:21:18.355Z,16.25
2023-04-21T12:23:47.718Z,16.80
2023-04-21T12:29:24.604Z,16.98
2023-04-21T12:34:31.785Z,19.33
2023-04-21T12:37:01.709Z,19.02
2023-04-21T12:39:48.519Z,19.92
2023-04-21T12:42:31.206Z,20.13
2023-04-21T12:45:08.595Z,18.27
2023-04-21T12:47:40.742Z,16.98
2023-04-21T12:50:15.199Z,17.50
2023-04-21T12:52:53.179Z,17.98
2023-04-21T12:55:33.960Z,18.20
2023-04-21T12:58:01.906Z,17.95
2023-04-21T13:03:15.356Z,17.90
2023-04-21T13:05:45.826Z,18.77
2023-04-21T13:08:13.538Z,17.85
2023-04-21T13:10:47.748Z,18.85
2023-04-21T13:13:18.459Z,19.05
2023-04-21T13:15:46.506Z,19.65
2023-04-21T13:18:21.207Z,18.83
2023-04-21T13:20:52.191Z,17.83
2023-04-21T13:23:20.683Z,16.90
2023-04-21T13:25:50.385Z,18.25
2023-04-21T13:28:19.419Z,19.67
2023-04-21T13:30:50.716Z,19.05
2023-04-21T13:33:25.056Z,19.95
2023-04-21T13:36:11.965Z,18.90
2023-04-21T13:38:57.998Z,19.00
2023-04-21T13:41:25.705Z,19.67
2023-04-21T13:44:01.361Z,19.60
2023-04-21T13:46:33.510Z,20.05
2023-04-21T13:49:03.439Z,20.88
2023-04-21T13:51:36.097Z,21.23
2023-04-21T13:57:03.769Z,22.08
2023-04-21T13:59:31.392Z,20.08
2023-04-21T14:02:00.969Z,21.35
2023-04-21T14:04:31.417Z,21.27
2023-04-21T14:06:59.634Z,23.00
2023-04-21T14:09:29.007Z,22.05
2023-04-21T14:12:03.582Z,22.63
2023-04-21T14:14:40.008Z,21.95
2023-04-21T14:17:15.336Z,21.98
2023-04-21T14:19:44.687Z,23.00
2023-04-21T14:22:22.267Z,21.42
2023-04-21T14:24:51.779Z,23.00
2023-04-21T14:27:21.200Z,23.17
2023-04-21T14:29:50.756Z,24.08
2023-04-21T14:32:22.205Z,24.38
2023-04-21T14:35:03.694Z,22.85
2023-04-21T14:37:38.779Z,22.88
2023-04-21T14:40:09.390Z,23.52
2023-04-21T14:42:36.870Z,23.88
2023-04-21T14:45:04.662Z,23.15
2023-04-21T14:47:33.139Z,24.67
2023-04-21T14:50:03.249Z,23.38
2023-04-21T14:52:31.130Z,23.95
2023-04-21T14:55:03.997Z,23.27
2023-04-21T14:57:37.897Z,24.38
2023-04-21T15:00:14.182Z,25.55
2023-04-21T15:02:52.727Z,26.40
2023-04-21T15:05:26.218Z,26.90
2023-04-21T15:07:53.716Z,27.85
2023-04-21T15:10:24.824Z,26.58
2023-04-21T15:12:54.770Z,27.50
2023-04-21T15:15:23.327Z,27.92
2023-04-21T15:17:51.265Z,27.85
2023-04-21T15:20:32.486Z,28.40
2023-04-21T15:23:11.970Z,27.88
2023-04-21T15:25:44.551Z,27.63
2023-04-21T15:28:17.360Z,27.50
2023-04-21T15:33:17.735Z,27.15
2023-04-21T15:35:46.996Z,29.15
2023-04-21T15:38:24.389Z,27.50
2023-04-21T15:41:01.010Z,26.65
2023-04-21T15:43:34.867Z,27.30
2023-04-21T15:46:03.536Z,26.90
2023-04-21T15:48:31.335Z,26.73
2023-04-21T15:51:03.364Z,26.38
2023-04-21T15:53:30.739Z,27.48
2023-04-21T15:55:58.252Z,27.77
2023-04-21T15:58:26.173Z,28.65
2023-04-21T16:00:53.576Z,28.05
2023-04-21T16:03:22.141Z,28.13
2023-04-21T16:05:52.346Z,28.15
2023-04-21T16:08:20.068Z,29.52
2023-04-21T16:10:49.450Z,28.85
2023-04-21T16:13:20.486Z,28.85
2023-04-21T16:15:52.281Z,28.88
2023-04-21T16:18:21.711Z,27.75
2023-04-21T16:21:00.848Z,28.90
2023-04-21T16:23:42.423Z,28.83
2023-04-21T16:26:11.128Z,28.27
2023-04-21T16:28:38.796Z,28.73
2023-04-21T16:34:21.325Z,27.77
2023-04-21T16:36:50.951Z,27.75
2023-04-21T16:39:23.226Z,26.80
2023-04-21T16:41:52.484Z,25.55
2023-04-21T16:44:22.239Z,25.85
2023-04-21T16:46:50.598Z,25.65
2023-04-21T16:49:25.079Z,24.52
2023-04-21T16:51:55.333Z,22.73
2023-04-21T16:54:32.257Z,22.45
2023-04-21T16:57:04.121Z,21.02
2023-04-21T16:59:33.920Z,22.27
2023-04-21T17:02:03.716Z,22.20
2023-04-21T17:04:37.104Z,21.95
2023-04-21T17:07:14.239Z,21.63
2023-04-21T17:09:50.611Z,21.30
2023-04-21T17:12:24.578Z,20.85
2023-04-21T17:14:55.260Z,21.02
2023-04-21T17:17:23.189Z,21.05
2023-04-21T17:19:51.068Z,20.75
2023-04-21T17:22:18.522Z,21.15
2023-04-21T17:24:53.355Z,24.70
2023-04-21T17:27:30.852Z,12.45
2023-04-21T17:29:59.960Z,11.02
2023-04-21T17:32:34.715Z,12.52
2023-04-21T17:35:02.905Z,12.00
2023-04-21T17:37:32.025Z,12.63
2023-04-21T17:40:03.282Z,11.02
2023-04-21T17:42:33.377Z,12.63
2023-04-21T17:45:06.027Z,13.30
2023-04-21T17:47:37.578Z,14.27
2023-04-21T17:50:09.983Z,12.73
2023-04-21T17:52:49.086Z,9.88
2023-04-21T17:55:22.839Z,8.73
2023-04-21T17:57:53.183Z,5.68
2023-04-21T18:00:22.165Z,9.48
2023-04-21T18:02:58.442Z,8.70
2023-04-21T18:05:29.669Z,8.73
2023-04-21T18:08:02.476Z,8.52
2023-04-21T18:10:48.841Z,6.63
2023-04-21T18:13:24.652Z,7.15
2023-04-21T18:15:53.210Z,7.75
2023-04-21T18:18:25.685Z,8.90
2023-04-21T18:20:57.142Z,9.27
2023-04-21T18:23:26.266Z,10.10
2023-04-21T18:25:55.405Z,9.50
2023-04-21T18:28:30.320Z,10.15
2023-04-21T18:30:58.088Z,8.75
2023-04-21T18:33:25.658Z,8.52
2023-04-21T18:35:53.273Z,9.85
2023-04-21T18:38:20.719Z,9.63
2023-04-21T18:40:48.289Z,10.30
2023-04-21T18:43:16.662Z,10.02
2023-04-21T18:45:47.201Z,11.27
2023-04-21T18:48:14.859Z,10.95
2023-04-21T18:51:19.095Z,9.48
2023-04-21T18:53:48.123Z,10.15
2023-04-21T18:56:16.114Z,9.60
2023-04-21T18:58:51.952Z,9.90
2023-04-21T19:01:20.408Z,9.52
2023-04-21T19:03:49.902Z,10.43
2023-04-21T19:06:18.767Z,9.48
2023-04-21T19:08:54.898Z,10.93
2023-04-21T19:11:38.272Z,9.43
2023-04-21T19:14:14.093Z,9.60
2023-04-21T19:16:41.793Z,10.13
2023-04-21T19:19:13.426Z,11.68
2023-04-21T19:25:01.147Z,10.32
2023-04-21T19:37:02.078Z,9.95
2023-04-21T19:39:40.403Z,10.68
2023-04-21T19:42:17.726Z,10.13
2023-04-21T19:44:52.774Z,10.13
2023-04-21T19:47:28.623Z,10.95
2023-04-21T19:50:43.829Z,12.18
2023-04-21T19:56:14.637Z,15.40
2023-04-21T20:01:30.362Z,13.18
2023-04-21T20:03:59.188Z,14.02
2023-04-21T20:06:39.092Z,12.20
2023-04-21T20:09:18.517Z,12.15
2023-04-21T20:11:50.437Z,12.73
2023-04-21T20:14:23.209Z,12.15
2023-04-21T20:17:04.396Z,12.45
2023-04-21T20:19:40.840Z,12.77
2023-04-21T20:22:15.107Z,13.80
2023-04-21T20:24:43.685Z,13.75
2023-04-21T20:27:30.321Z,14.25
2023-04-21T20:29:59.247Z,15.15
2023-04-21T20:32:36.270Z,16.83
2023-04-21T20:38:11.010Z,17.95
2023-04-21T20:40:50.598Z,18.55
2023-04-21T20:43:19.553Z,19.92
2023-04-21T20:45:55.587Z,19.85
2023-04-21T20:48:25.154Z,21.20
2023-04-21T20:50:57.452Z,21.77
2023-04-21T20:53:37.902Z,21.83
2023-04-21T20:56:15.953Z,21.30
2023-04-21T21:01:33.478Z,21.90
2023-04-21T21:04:03.005Z,22.50
2023-04-21T21:06:30.982Z,23.30
2023-04-21T21:08:59.767Z,22.67
2023-04-21T21:11:38.161Z,23.95
2023-04-21T21:17:08.269Z,24.15
2023-04-21T21:19:42.355Z,26.00
2023-04-21T21:22:40.337Z,25.25
2023-04-21T21:25:14.863Z,26.65
2023-04-21T21:28:10.353Z,28.58
2023-04-21T21:31:05.082Z,29.50
2023-04-21T21:39:19.870Z,28.67
2023-04-21T21:41:54.090Z,28.90
2023-04-21T21:44:24.151Z,27.17
2023-04-21T21:49:53.677Z,31.45
2023-04-21T21:52:31.688Z,31.60
2023-04-21T21:55:54.644Z,34.47
2023-04-21T21:58:30.247Z,34.78
2023-04-21T22:01:17.198Z,35.42
2023-04-21T22:04:22.031Z,34.72
2023-04-21T22:12:45.485Z,32.78
2023-04-21T22:15:50.219Z,32.70
2023-04-21T22:18:44.599Z,31.40
2023-04-21T22:21:13.372Z,33.47
2023-04-21T22:23:45.503Z,32.13
2023-04-21T22:26:23.314Z,31.88
2023-04-21T22:28:59.555Z,32.10
2023-04-21T22:34:49.037Z,32.90
2023-04-21T22:37:29.823Z,32.85
2023-04-21T22:40:07.584Z,33.78
2023-04-21T22:46:12.803Z,35.60
2023-04-21T22:51:49.249Z,36.97
2023-04-21T22:54:21.386Z,36.38
2023-04-21T22:56:49.608Z,38.33
2023-04-21T22:59:22.262Z,37.60
2023-04-21T23:01:55.446Z,36.95
2023-04-21T23:04:27.502Z,37.08
2023-04-21T23:07:04.100Z,37.90
2023-04-21T23:09:35.020Z,39.88
2023-04-21T23:12:09.887Z,37.28
2023-04-21T23:17:57.972Z,37.78
2023-04-21T23:20:40.196Z,38.90
2023-04-21T23:23:18.285Z,40.20
2023-04-21T23:25:49.845Z,40.25
2023-04-21T23:28:18.799Z,38.28
2023-04-21T23:31:06.862Z,40.50
2023-04-21T23:33:38.196Z,43.38
2023-04-21T23:38:53.373Z,44.85
2023-04-21T23:41:24.531Z,42.45
2023-04-21T23:44:08.404Z,42.42
2023-04-21T23:49:49.446Z,41.25
2023-04-21T23:55:19.466Z,35.83
2023-04-21T23:57:47.675Z,31.83
